sensor_id;sensor_type;location;lat;lon;timestamp;pressure;altitude;pressure_sealevel;temperature;humidity
17362;BME280;8798;51.938;4.348;2023-04-01T00:00:30;98838.31;;;11.12;86.89
17362;BME280;8798;51.938;4.348;2023-04-01T00:02:58;98844.75;;;11.11;87.06
17362;BME280;8798;51.938;4.348;2023-04-01T00:05:26;98835.22;;;11.08;87.02
17362;BME280;8798;51.938;4.348;2023-04-01T00:07:54;98807.31;;;11.03;87.14
17362;BME280;8798;51.938;4.348;2023-04-01T00:10:22;98805.84;;;11.00;86.63
17362;BME280;8798;51.938;4.348;2023-04-01T00:12:51;98818.91;;;11.03;87.14
17362;BME280;8798;51.938;4.348;2023-04-01T00:15:19;98842.66;;;11.06;86.81
17362;BME280;8798;51.938;4.348;2023-04-01T00:17:47;98835.63;;;11.05;86.72
17362;BME280;8798;51.938;4.348;2023-04-01T00:20:16;98836.03;;;11.02;86.96
17362;BME280;8798;51.938;4.348;2023-04-01T00:22:43;98837.72;;;11.03;86.92
17362;BME280;8798;51.938;4.348;2023-04-01T00:25:11;98852.59;;;11.06;87.34
17362;BME280;8798;51.938;4.348;2023-04-01T00:27:39;98864.16;;;11.06;87.41
17362;BME280;8798;51.938;4.348;2023-04-01T00:30:09;98838.09;;;11.00;87.26
17362;BME280;8798;51.938;4.348;2023-04-01T00:32:38;98809.78;;;10.91;86.85
17362;BME280;8798;51.938;4.348;2023-04-01T00:35:06;98817.84;;;10.91;87.04
17362;BME280;8798;51.938;4.348;2023-04-01T00:37:35;98823.22;;;10.91;86.92
17362;BME280;8798;51.938;4.348;2023-04-01T00:40:05;98836.25;;;10.94;87.54
17362;BME280;8798;51.938;4.348;2023-04-01T00:42:34;98828.38;;;10.92;87.39
17362;BME280;8798;51.938;4.348;2023-04-01T00:45:27;98846.97;;;10.94;87.12
17362;BME280;8798;51.938;4.348;2023-04-01T00:47:56;98851.72;;;10.92;87.35
17362;BME280;8798;51.938;4.348;2023-04-01T00:50:26;98846.56;;;10.90;87.36
17362;BME280;8798;51.938;4.348;2023-04-01T00:52:57;98842.22;;;10.89;87.62
17362;BME280;8798;51.938;4.348;2023-04-01T00:55:27;98852.97;;;10.89;87.03
17362;BME280;8798;51.938;4.348;2023-04-01T00:57:57;98839.13;;;10.86;87.24
17362;BME280;8798;51.938;4.348;2023-04-01T01:00:28;98827.94;;;10.82;87.08
17362;BME280;8798;51.938;4.348;2023-04-01T01:02:56;98840.38;;;10.83;87.57
17362;BME280;8798;51.938;4.348;2023-04-01T01:05:34;98854.38;;;10.85;87.45
17362;BME280;8798;51.938;4.348;2023-04-01T01:08:19;98851.09;;;10.83;87.42
17362;BME280;8798;51.938;4.348;2023-04-01T01:10:53;98861.84;;;10.83;87.70
17362;BME280;8798;51.938;4.348;2023-04-01T01:13:25;98849.84;;;10.79;87.54
17362;BME280;8798;51.938;4.348;2023-04-01T01:15:59;98852.34;;;10.81;87.68
17362;BME280;8798;51.938;4.348;2023-04-01T01:18:35;98850.03;;;10.77;87.67
17362;BME280;8798;51.938;4.348;2023-04-01T01:21:30;98870.09;;;10.82;86.98
17362;BME280;8798;51.938;4.348;2023-04-01T01:24:13;98859.97;;;10.77;87.37
17362;BME280;8798;51.938;4.348;2023-04-01T01:26:53;98868.00;;;10.77;87.33
17362;BME280;8798;51.938;4.348;2023-04-01T01:35:35;98857.25;;;10.70;87.93
17362;BME280;8798;51.938;4.348;2023-04-01T01:38:07;98839.09;;;10.66;87.41
17362;BME280;8798;51.938;4.348;2023-04-01T01:40:36;98835.13;;;10.62;87.45
17362;BME280;8798;51.938;4.348;2023-04-01T01:43:10;98843.00;;;10.63;87.76
17362;BME280;8798;51.938;4.348;2023-04-01T01:45:43;98858.88;;;10.65;87.72
17362;BME280;8798;51.938;4.348;2023-04-01T01:48:15;98850.19;;;10.63;87.66
17362;BME280;8798;51.938;4.348;2023-04-01T01:50:46;98844.44;;;10.59;87.95
17362;BME280;8798;51.938;4.348;2023-04-01T01:53:16;98808.03;;;10.50;88.03
17362;BME280;8798;51.938;4.348;2023-04-01T01:55:44;98821.28;;;10.51;87.70
17362;BME280;8798;51.938;4.348;2023-04-01T01:58:16;98826.66;;;10.51;87.30
17362;BME280;8798;51.938;4.348;2023-04-01T02:00:49;98824.16;;;10.50;87.75
17362;BME280;8798;51.938;4.348;2023-04-01T02:03:19;98830.34;;;10.50;87.65
17362;BME280;8798;51.938;4.348;2023-04-01T02:05:51;98853.28;;;10.53;87.57
17362;BME280;8798;51.938;4.348;2023-04-01T02:08:22;98837.56;;;10.50;87.79
17362;BME280;8798;51.938;4.348;2023-04-01T02:10:55;98841.28;;;10.49;87.56
17362;BME280;8798;51.938;4.348;2023-04-01T02:13:27;98837.16;;;10.46;87.36
17362;BME280;8798;51.938;4.348;2023-04-01T02:16:01;98824.34;;;10.42;87.96
17362;BME280;8798;51.938;4.348;2023-04-01T02:18:33;98833.41;;;10.41;88.03
17362;BME280;8798;51.938;4.348;2023-04-01T02:21:05;98814.41;;;10.36;87.97
17362;BME280;8798;51.938;4.348;2023-04-01T02:23:35;98804.25;;;10.31;87.68
17362;BME280;8798;51.938;4.348;2023-04-01T02:26:05;98812.13;;;10.32;88.03
17362;BME280;8798;51.938;4.348;2023-04-01T02:28:36;98830.50;;;10.36;87.86
17362;BME280;8798;51.938;4.348;2023-04-01T02:31:06;98823.03;;;10.31;88.02
17362;BME280;8798;51.938;4.348;2023-04-01T02:33:38;98812.91;;;10.26;87.89
17362;BME280;8798;51.938;4.348;2023-04-01T02:36:10;98820.56;;;10.29;87.97
17362;BME280;8798;51.938;4.348;2023-04-01T02:38:40;98841.22;;;10.29;88.01
17362;BME280;8798;51.938;4.348;2023-04-01T02:41:08;98858.38;;;10.35;88.16
17362;BME280;8798;51.938;4.348;2023-04-01T02:43:36;98894.31;;;10.40;87.78
17362;BME280;8798;51.938;4.348;2023-04-01T02:46:04;98871.59;;;10.36;88.08
17362;BME280;8798;51.938;4.348;2023-04-01T02:48:31;98875.47;;;10.33;88.08
17362;BME280;8798;51.938;4.348;2023-04-01T02:50:59;98892.03;;;10.37;88.25
17362;BME280;8798;51.938;4.348;2023-04-01T02:53:28;98907.72;;;10.40;88.27
17362;BME280;8798;51.938;4.348;2023-04-01T02:55:56;98931.47;;;10.43;88.07
17362;BME280;8798;51.938;4.348;2023-04-01T02:58:24;98953.41;;;10.47;87.81
17362;BME280;8798;51.938;4.348;2023-04-01T03:00:52;98951.53;;;10.47;88.42
17362;BME280;8798;51.938;4.348;2023-04-01T03:03:20;98949.91;;;10.46;87.97
17362;BME280;8798;51.938;4.348;2023-04-01T03:05:48;98958.78;;;10.47;88.20
17362;BME280;8798;51.938;4.348;2023-04-01T03:08:16;98966.00;;;10.46;88.35
17362;BME280;8798;51.938;4.348;2023-04-01T03:10:45;98975.88;;;10.46;88.36
17362;BME280;8798;51.938;4.348;2023-04-01T03:13:13;98978.56;;;10.46;88.33
17362;BME280;8798;51.938;4.348;2023-04-01T03:15:41;98995.31;;;10.48;88.47
17362;BME280;8798;51.938;4.348;2023-04-01T03:18:09;99015.56;;;10.50;88.31
17362;BME280;8798;51.938;4.348;2023-04-01T03:20:36;99023.25;;;10.53;87.94
17362;BME280;8798;51.938;4.348;2023-04-01T03:23:04;99030.44;;;10.53;88.10
17362;BME280;8798;51.938;4.348;2023-04-01T03:25:32;99030.44;;;10.53;88.44
17362;BME280;8798;51.938;4.348;2023-04-01T03:28:02;99033.13;;;10.53;87.73
17362;BME280;8798;51.938;4.348;2023-04-01T03:30:30;99017.81;;;10.47;88.23
17362;BME280;8798;51.938;4.348;2023-04-01T03:32:58;99018.84;;;10.46;88.41
17362;BME280;8798;51.938;4.348;2023-04-01T03:35:27;99025.88;;;10.47;88.19
17362;BME280;8798;51.938;4.348;2023-04-01T03:37:55;99039.94;;;10.49;88.57
17362;BME280;8798;51.938;4.348;2023-04-01T03:40:23;99053.16;;;10.50;88.66
17362;BME280;8798;51.938;4.348;2023-04-01T03:42:52;99065.34;;;10.53;88.51
17362;BME280;8798;51.938;4.348;2023-04-01T03:45:21;99075.91;;;10.54;88.41
17362;BME280;8798;51.938;4.348;2023-04-01T03:47:49;99073.41;;;10.53;88.66
17362;BME280;8798;51.938;4.348;2023-04-01T03:50:17;99064.75;;;10.51;88.72
17362;BME280;8798;51.938;4.348;2023-04-01T03:52:46;99082.50;;;10.52;88.19
17362;BME280;8798;51.938;4.348;2023-04-01T03:55:14;99082.69;;;10.50;88.87
17362;BME280;8798;51.938;4.348;2023-04-01T03:57:42;99078.16;;;10.51;88.41
17362;BME280;8798;51.938;4.348;2023-04-01T04:00:11;99086.22;;;10.51;88.28
17362;BME280;8798;51.938;4.348;2023-04-01T04:02:40;99095.91;;;10.52;88.67
17362;BME280;8798;51.938;4.348;2023-04-01T04:05:08;99088.91;;;10.51;88.32
17362;BME280;8798;51.938;4.348;2023-04-01T04:07:36;99095.91;;;10.52;88.47
17362;BME280;8798;51.938;4.348;2023-04-01T04:10:04;99110.16;;;10.52;88.50
17362;BME280;8798;51.938;4.348;2023-04-01T04:12:33;99109.34;;;10.52;88.54
17362;BME280;8798;51.938;4.348;2023-04-01T04:15:00;99120.06;;;10.52;88.83
17362;BME280;8798;51.938;4.348;2023-04-01T04:17:28;99129.78;;;10.53;88.63
17362;BME280;8798;51.938;4.348;2023-04-01T04:19:58;99143.84;;;10.55;88.53
17362;BME280;8798;51.938;4.348;2023-04-01T04:22:25;99154.41;;;10.57;88.54
17362;BME280;8798;51.938;4.348;2023-04-01T04:24:53;99150.25;;;10.54;88.96
17362;BME280;8798;51.938;4.348;2023-04-01T04:27:21;99151.91;;;10.55;88.80
17362;BME280;8798;51.938;4.348;2023-04-01T04:29:49;99151.25;;;10.53;88.85
17362;BME280;8798;51.938;4.348;2023-04-01T04:32:17;99155.63;;;10.54;88.89
17362;BME280;8798;51.938;4.348;2023-04-01T04:34:44;99152.13;;;10.53;88.48
17362;BME280;8798;51.938;4.348;2023-04-01T04:37:14;99161.16;;;10.52;88.65
17362;BME280;8798;51.938;4.348;2023-04-01T04:39:41;99163.69;;;10.54;89.27
17362;BME280;8798;51.938;4.348;2023-04-01T04:42:09;99167.38;;;10.53;88.76
17362;BME280;8798;51.938;4.348;2023-04-01T04:44:37;99166.75;;;10.51;88.96
17362;BME280;8798;51.938;4.348;2023-04-01T04:47:06;99167.56;;;10.51;88.57
17362;BME280;8798;51.938;4.348;2023-04-01T04:49:34;99175.41;;;10.53;88.94
17362;BME280;8798;51.938;4.348;2023-04-01T04:52:02;99171.25;;;10.50;88.51
17362;BME280;8798;51.938;4.348;2023-04-01T04:54:31;99180.19;;;10.51;88.50
17362;BME280;8798;51.938;4.348;2023-04-01T04:56:58;99192.56;;;10.52;88.70
17362;BME280;8798;51.938;4.348;2023-04-01T04:59:26;99189.06;;;10.51;89.10
17362;BME280;8798;51.938;4.348;2023-04-01T05:01:54;99194.44;;;10.51;88.76
17362;BME280;8798;51.938;4.348;2023-04-01T05:04:22;99192.97;;;10.49;89.45
17362;BME280;8798;51.938;4.348;2023-04-01T05:06:50;99194.59;;;10.50;88.72
17362;BME280;8798;51.938;4.348;2023-04-01T05:09:18;99192.31;;;10.47;89.10
17362;BME280;8798;51.938;4.348;2023-04-01T05:11:47;99191.50;;;10.46;89.04
17362;BME280;8798;51.938;4.348;2023-04-01T05:14:17;99195.81;;;10.47;89.09
17362;BME280;8798;51.938;4.348;2023-04-01T05:16:45;99203.06;;;10.47;88.81
17362;BME280;8798;51.938;4.348;2023-04-01T05:19:13;99202.22;;;10.46;88.90
17362;BME280;8798;51.938;4.348;2023-04-01T05:21:40;99213.78;;;10.47;88.82
17362;BME280;8798;51.938;4.348;2023-04-01T05:24:08;99221.00;;;10.46;88.62
17362;BME280;8798;51.938;4.348;2023-04-01T05:26:36;99230.53;;;10.49;88.94
17362;BME280;8798;51.938;4.348;2023-04-01T05:29:05;99227.84;;;10.49;89.20
17362;BME280;8798;51.938;4.348;2023-04-01T05:31:33;99235.09;;;10.48;88.78
17362;BME280;8798;51.938;4.348;2023-04-01T05:34:01;99248.28;;;10.50;88.93
17362;BME280;8798;51.938;4.348;2023-04-01T05:36:29;99246.66;;;10.49;88.91
17362;BME280;8798;51.938;4.348;2023-04-01T05:38:57;99249.50;;;10.47;88.85
17362;BME280;8798;51.938;4.348;2023-04-01T05:41:24;99246.81;;;10.47;88.94
17362;BME280;8798;51.938;4.348;2023-04-01T05:43:53;99252.19;;;10.47;88.97
17362;BME280;8798;51.938;4.348;2023-04-01T05:46:25;99263.59;;;10.49;88.94
17362;BME280;8798;51.938;4.348;2023-04-01T05:48:53;99277.81;;;10.50;89.18
17362;BME280;8798;51.938;4.348;2023-04-01T05:51:21;99260.44;;;10.46;88.72
17362;BME280;8798;51.938;4.348;2023-04-01T05:53:49;99263.97;;;10.46;89.13
17362;BME280;8798;51.938;4.348;2023-04-01T05:56:17;99280.72;;;10.48;89.18
17362;BME280;8798;51.938;4.348;2023-04-01T05:58:47;99289.59;;;10.49;89.02
17362;BME280;8798;51.938;4.348;2023-04-01T06:01:18;99282.56;;;10.48;89.29
17362;BME280;8798;51.938;4.348;2023-04-01T06:03:47;99290.59;;;10.48;89.08
17362;BME280;8798;51.938;4.348;2023-04-01T06:06:20;99287.91;;;10.48;89.31
17362;BME280;8798;51.938;4.348;2023-04-01T06:08:51;99297.00;;;10.47;89.12
17362;BME280;8798;51.938;4.348;2023-04-01T06:11:28;99303.19;;;10.47;89.14
17362;BME280;8798;51.938;4.348;2023-04-01T06:14:11;99300.69;;;10.46;89.45
17362;BME280;8798;51.938;4.348;2023-04-01T06:16:53;99293.84;;;10.43;89.43
17362;BME280;8798;51.938;4.348;2023-04-01T06:19:34;99307.09;;;10.45;89.26
17362;BME280;8798;51.938;4.348;2023-04-01T06:22:17;99313.13;;;10.47;89.55
17362;BME280;8798;51.938;4.348;2023-04-01T06:25:00;99334.41;;;10.48;89.40
17362;BME280;8798;51.938;4.348;2023-04-01T06:27:45;99340.41;;;10.50;89.40
17362;BME280;8798;51.938;4.348;2023-04-01T06:30:30;99332.72;;;10.47;89.26
17362;BME280;8798;51.938;4.348;2023-04-01T06:33:16;99334.59;;;10.47;89.46
17362;BME280;8798;51.938;4.348;2023-04-01T06:36:03;99328.75;;;10.43;89.48
17362;BME280;8798;51.938;4.348;2023-04-01T06:38:53;99347.19;;;10.46;89.53
17362;BME280;8798;51.938;4.348;2023-04-01T06:41:51;99349.22;;;10.44;89.75
17362;BME280;8798;51.938;4.348;2023-04-01T06:44:28;99356.25;;;10.45;89.28
17362;BME280;8798;51.938;4.348;2023-04-01T06:47:06;99353.78;;;10.44;89.43
17362;BME280;8798;51.938;4.348;2023-04-01T06:49:46;99370.50;;;10.46;89.66
17362;BME280;8798;51.938;4.348;2023-04-01T06:52:23;99380.06;;;10.48;89.27
17362;BME280;8798;51.938;4.348;2023-04-01T06:54:55;99381.06;;;10.47;89.02
17362;BME280;8798;51.938;4.348;2023-04-01T06:57:31;99370.03;;;10.42;89.41
17362;BME280;8798;51.938;4.348;2023-04-01T07:00:04;99391.78;;;10.47;89.36
17362;BME280;8798;51.938;4.348;2023-04-01T07:02:43;99402.34;;;10.49;89.29
17362;BME280;8798;51.938;4.348;2023-04-01T07:05:14;99414.75;;;10.50;89.67
17362;BME280;8798;51.938;4.348;2023-04-01T07:07:46;99407.50;;;10.50;89.73
17362;BME280;8798;51.938;4.348;2023-04-01T07:10:19;99428.66;;;10.53;89.65
17362;BME280;8798;51.938;4.348;2023-04-01T07:12:52;99447.06;;;10.57;89.67
17362;BME280;8798;51.938;4.348;2023-04-01T07:15:26;99480.38;;;10.62;89.54
17362;BME280;8798;51.938;4.348;2023-04-01T07:17:58;99501.47;;;10.65;89.90
17362;BME280;8798;51.938;4.348;2023-04-01T07:20:31;99494.28;;;10.66;88.95
17362;BME280;8798;51.938;4.348;2023-04-01T07:23:03;99504.81;;;10.67;89.60
17362;BME280;8798;51.938;4.348;2023-04-01T07:25:35;99510.41;;;10.66;89.54
17362;BME280;8798;51.938;4.348;2023-04-01T07:28:06;99502.50;;;10.64;89.57
17362;BME280;8798;51.938;4.348;2023-04-01T07:30:45;99517.59;;;10.65;89.31
17362;BME280;8798;51.938;4.348;2023-04-01T07:33:16;99515.78;;;10.66;89.60
17362;BME280;8798;51.938;4.348;2023-04-01T07:35:52;99513.09;;;10.66;89.80
17362;BME280;8798;51.938;4.348;2023-04-01T07:38:32;99519.44;;;10.65;89.34
17362;BME280;8798;51.938;4.348;2023-04-01T07:41:09;99512.59;;;10.62;89.82
17362;BME280;8798;51.938;4.348;2023-04-01T07:43:53;99509.25;;;10.60;89.79
17362;BME280;8798;51.938;4.348;2023-04-01T07:46:36;99534.75;;;10.64;89.47
17362;BME280;8798;51.938;4.348;2023-04-01T07:49:11;99510.28;;;10.59;89.44
17362;BME280;8798;51.938;4.348;2023-04-01T07:51:45;99521.88;;;10.60;89.65
17362;BME280;8798;51.938;4.348;2023-04-01T07:54:23;99540.13;;;10.64;89.65
17362;BME280;8798;51.938;4.348;2023-04-01T07:56:56;99554.84;;;10.68;90.00
17362;BME280;8798;51.938;4.348;2023-04-01T07:59:30;99585.50;;;10.74;89.60
17362;BME280;8798;51.938;4.348;2023-04-01T08:02:06;99605.41;;;10.80;90.03
17362;BME280;8798;51.938;4.348;2023-04-01T08:04:48;99622.00;;;10.83;89.54
17362;BME280;8798;51.938;4.348;2023-04-01T08:07:23;99625.69;;;10.82;89.86
17362;BME280;8798;51.938;4.348;2023-04-01T08:09:59;99621.34;;;10.81;89.40
17362;BME280;8798;51.938;4.348;2023-04-01T08:12:37;99592.53;;;10.75;90.03
17362;BME280;8798;51.938;4.348;2023-04-01T08:15:17;99593.72;;;10.72;89.81
17362;BME280;8798;51.938;4.348;2023-04-01T08:18:01;99610.31;;;10.76;89.46
17362;BME280;8798;51.938;4.348;2023-04-01T08:20:35;99611.97;;;10.77;89.92
17362;BME280;8798;51.938;4.348;2023-04-01T08:23:10;99629.41;;;10.81;89.55
17362;BME280;8798;51.938;4.348;2023-04-01T08:25:44;99620.03;;;10.77;89.61
17362;BME280;8798;51.938;4.348;2023-04-01T08:28:17;99639.13;;;10.82;89.84
17362;BME280;8798;51.938;4.348;2023-04-01T08:30:50;99661.09;;;10.86;89.58
17362;BME280;8798;51.938;4.348;2023-04-01T08:33:23;99669.97;;;10.86;90.08
17362;BME280;8798;51.938;4.348;2023-04-01T08:35:56;99668.97;;;10.87;89.50
17362;BME280;8798;51.938;4.348;2023-04-01T08:38:29;99686.56;;;10.90;90.09
17362;BME280;8798;51.938;4.348;2023-04-01T08:44:15;99679.53;;;10.89;90.02
17362;BME280;8798;51.938;4.348;2023-04-01T08:47:00;99692.75;;;10.90;89.83
17362;BME280;8798;51.938;4.348;2023-04-01T08:50:18;99686.94;;;10.87;89.48
17362;BME280;8798;51.938;4.348;2023-04-01T08:52:52;99679.91;;;10.86;89.94
17362;BME280;8798;51.938;4.348;2023-04-01T08:55:34;99689.44;;;10.88;89.66
17362;BME280;8798;51.938;4.348;2023-04-01T08:58:30;99728.00;;;10.95;90.00
17362;BME280;8798;51.938;4.348;2023-04-01T09:01:13;99740.25;;;10.98;89.55
17362;BME280;8798;51.938;4.348;2023-04-01T09:03:52;99755.16;;;11.01;89.83
17362;BME280;8798;51.938;4.348;2023-04-01T09:06:34;99771.75;;;11.04;89.87
17362;BME280;8798;51.938;4.348;2023-04-01T09:09:25;99811.81;;;11.14;89.85
17362;BME280;8798;51.938;4.348;2023-04-01T09:12:23;99810.78;;;11.15;90.15
17362;BME280;8798;51.938;4.348;2023-04-01T09:24:18;99855.41;;;11.24;89.12
17362;BME280;8798;51.938;4.348;2023-04-01T09:27:01;99844.19;;;11.21;89.99
17362;BME280;8798;51.938;4.348;2023-04-01T09:29:48;99834.78;;;11.16;90.13
17362;BME280;8798;51.938;4.348;2023-04-01T09:32:31;99830.44;;;11.15;89.99
17362;BME280;8798;51.938;4.348;2023-04-01T09:35:20;99843.53;;;11.18;90.22
17362;BME280;8798;51.938;4.348;2023-04-01T09:37:54;99845.19;;;11.19;89.65
17362;BME280;8798;51.938;4.348;2023-04-01T09:40:34;99848.69;;;11.20;90.14
17362;BME280;8798;51.938;4.348;2023-04-01T09:43:35;99857.41;;;11.22;90.26
17362;BME280;8798;51.938;4.348;2023-04-01T09:46:15;99890.63;;;11.29;89.62
17362;BME280;8798;51.938;4.348;2023-04-01T09:49:19;99921.16;;;11.36;89.90
17362;BME280;8798;51.938;4.348;2023-04-01T09:52:01;99918.47;;;11.36;89.56
17362;BME280;8798;51.938;4.348;2023-04-01T09:54:53;99939.44;;;11.41;90.13
17362;BME280;8798;51.938;4.348;2023-04-01T10:00:35;99968.13;;;11.49;89.61
17362;BME280;8798;51.938;4.348;2023-04-01T10:03:51;99962.91;;;11.47;89.98
17362;BME280;8798;51.938;4.348;2023-04-01T10:06:52;99983.25;;;11.50;89.70
17362;BME280;8798;51.938;4.348;2023-04-01T10:15:40;99984.09;;;11.50;89.58
17362;BME280;8798;51.938;4.348;2023-04-01T10:21:39;99964.63;;;11.48;89.48
17362;BME280;8798;51.938;4.348;2023-04-01T10:24:30;99929.72;;;11.40;89.95
17362;BME280;8798;51.938;4.348;2023-04-01T10:27:30;99920.16;;;11.37;89.54
17362;BME280;8798;51.938;4.348;2023-04-01T10:30:35;99904.38;;;11.34;90.27
17362;BME280;8798;51.938;4.348;2023-04-01T10:33:36;99873.22;;;11.25;90.14
17362;BME280;8798;51.938;4.348;2023-04-01T10:45:46;99811.34;;;11.10;89.69
17362;BME280;8798;51.938;4.348;2023-04-01T10:48:31;99834.13;;;11.14;90.17
17362;BME280;8798;51.938;4.348;2023-04-01T10:51:20;99819.41;;;11.10;89.87
17362;BME280;8798;51.938;4.348;2023-04-01T10:54:17;99801.97;;;11.06;90.17
17362;BME280;8798;51.938;4.348;2023-04-01T10:56:51;99795.09;;;11.04;89.54
17362;BME280;8798;51.938;4.348;2023-04-01T11:03:03;99778.84;;;10.97;89.68
17362;BME280;8798;51.938;4.348;2023-04-01T11:06:05;99797.28;;;11.00;90.08
17362;BME280;8798;51.938;4.348;2023-04-01T11:09:28;99826.16;;;11.06;89.96
17362;BME280;8798;51.938;4.348;2023-04-01T11:12:37;99821.78;;;11.05;90.00
17362;BME280;8798;51.938;4.348;2023-04-01T11:15:29;99820.13;;;11.04;89.87
17362;BME280;8798;51.938;4.348;2023-04-01T11:24:13;99848.31;;;11.08;90.13
17362;BME280;8798;51.938;4.348;2023-04-01T11:27:05;99876.97;;;11.16;89.85
17362;BME280;8798;51.938;4.348;2023-04-01T11:29:57;99900.63;;;11.21;89.76
17362;BME280;8798;51.938;4.348;2023-04-01T11:32:52;99903.50;;;11.19;89.91
17362;BME280;8798;51.938;4.348;2023-04-01T11:35:42;99894.75;;;11.17;89.94
17362;BME280;8798;51.938;4.348;2023-04-01T11:38:28;99914.72;;;11.23;89.69
17362;BME280;8798;51.938;4.348;2023-04-01T11:41:13;99922.81;;;11.23;90.03
17362;BME280;8798;51.938;4.348;2023-04-01T11:43:57;99923.81;;;11.22;89.75
17362;BME280;8798;51.938;4.348;2023-04-01T11:46:39;99913.03;;;11.22;89.84
17362;BME280;8798;51.938;4.348;2023-04-01T11:49:23;99956.00;;;11.30;90.36
17362;BME280;8798;51.938;4.348;2023-04-01T11:52:03;99956.00;;;11.30;89.94
17362;BME280;8798;51.938;4.348;2023-04-01T11:54:56;99965.56;;;11.32;90.32
17362;BME280;8798;51.938;4.348;2023-04-01T11:57:46;99983.19;;;11.35;90.04
17362;BME280;8798;51.938;4.348;2023-04-01T12:00:26;99996.28;;;11.38;89.81
17362;BME280;8798;51.938;4.348;2023-04-01T12:03:15;100015.41;;;11.43;90.05
17362;BME280;8798;51.938;4.348;2023-04-01T12:05:53;100025.13;;;11.44;89.95
17362;BME280;8798;51.938;4.348;2023-04-01T12:08:31;100046.97;;;11.49;90.01
17362;BME280;8798;51.938;4.348;2023-04-01T12:11:12;100053.84;;;11.52;89.63
17362;BME280;8798;51.938;4.348;2023-04-01T12:13:49;100061.06;;;11.51;90.13
17362;BME280;8798;51.938;4.348;2023-04-01T12:16:29;100038.22;;;11.47;90.19
17362;BME280;8798;51.938;4.348;2023-04-01T12:19:04;100014.09;;;11.39;89.84
17362;BME280;8798;51.938;4.348;2023-04-01T12:21:37;99999.81;;;11.38;90.12
17362;BME280;8798;51.938;4.348;2023-04-01T12:24:25;100024.31;;;11.44;89.89
17362;BME280;8798;51.938;4.348;2023-04-01T12:27:07;100049.66;;;11.49;89.57
17362;BME280;8798;51.938;4.348;2023-04-01T12:29:49;100080.88;;;11.58;90.25
17362;BME280;8798;51.938;4.348;2023-04-01T12:32:31;100121.34;;;11.65;89.85
17362;BME280;8798;51.938;4.348;2023-04-01T12:35:21;100135.13;;;11.70;90.15
17362;BME280;8798;51.938;4.348;2023-04-01T12:38:10;100154.41;;;11.74;89.94
17362;BME280;8798;51.938;4.348;2023-04-01T12:41:13;100150.72;;;11.75;89.93
17362;BME280;8798;51.938;4.348;2023-04-01T12:47:21;100136.63;;;11.73;89.51
17362;BME280;8798;51.938;4.348;2023-04-01T12:50:08;100154.25;;;11.75;89.85
17362;BME280;8798;51.938;4.348;2023-04-01T12:52:54;100154.06;;;11.77;89.86
17362;BME280;8798;51.938;4.348;2023-04-01T12:55:38;100180.44;;;11.81;90.01
17362;BME280;8798;51.938;4.348;2023-04-01T12:58:36;100176.91;;;11.81;89.95
17362;BME280;8798;51.938;4.348;2023-04-01T13:01:26;100161.78;;;11.80;90.24
17362;BME280;8798;51.938;4.348;2023-04-01T13:04:14;100151.38;;;11.77;89.91
17362;BME280;8798;51.938;4.348;2023-04-01T13:06:57;100157.59;;;11.77;89.93
17362;BME280;8798;51.938;4.348;2023-04-01T13:09:39;100145.34;;;11.75;89.53
17362;BME280;8798;51.938;4.348;2023-04-01T13:12:27;100150.72;;;11.75;89.61
17362;BME280;8798;51.938;4.348;2023-04-01T13:15:13;100150.72;;;11.75;89.93
17362;BME280;8798;51.938;4.348;2023-04-01T13:17:49;100156.75;;;11.77;90.04
17362;BME280;8798;51.938;4.348;2023-04-01T13:20:29;100129.72;;;11.70;89.68
17362;BME280;8798;51.938;4.348;2023-04-01T13:23:09;100120.16;;;11.68;89.64
17362;BME280;8798;51.938;4.348;2023-04-01T13:25:43;100112.09;;;11.68;89.75
17362;BME280;8798;51.938;4.348;2023-04-01T13:28:25;100111.44;;;11.66;90.26
17362;BME280;8798;51.938;4.348;2023-04-01T13:30:59;100122.66;;;11.69;90.39
17362;BME280;8798;51.938;4.348;2023-04-01T13:33:34;100136.63;;;11.73;90.08
17362;BME280;8798;51.938;4.348;2023-04-01T13:36:17;100160.31;;;11.77;89.99
17362;BME280;8798;51.938;4.348;2023-04-01T13:39:02;100188.19;;;11.84;90.06
17362;BME280;8798;51.938;4.348;2023-04-01T13:41:50;100195.94;;;11.88;89.81
17362;BME280;8798;51.938;4.348;2023-04-01T13:44:26;100217.09;;;11.91;89.46
17362;BME280;8798;51.938;4.348;2023-04-01T13:47:08;100222.97;;;11.94;90.12
17362;BME280;8798;51.938;4.348;2023-04-01T13:49:56;100247.53;;;11.99;89.96
17362;BME280;8798;51.938;4.348;2023-04-01T13:52:37;100282.47;;;12.08;89.66
17362;BME280;8798;51.938;4.348;2023-04-01T13:55:26;100275.38;;;12.07;89.90
17362;BME280;8798;51.938;4.348;2023-04-01T13:58:13;100249.19;;;12.00;89.74
17362;BME280;8798;51.938;4.348;2023-04-01T14:00:53;100242.13;;;11.99;90.01
17362;BME280;8798;51.938;4.348;2023-04-01T14:03:55;100214.25;;;11.92;90.16
17362;BME280;8798;51.938;4.348;2023-04-01T14:06:35;100187.84;;;11.88;90.07
17362;BME280;8798;51.938;4.348;2023-04-01T14:09:47;100210.88;;;11.90;90.12
17362;BME280;8798;51.938;4.348;2023-04-01T14:12:27;100199.44;;;11.88;89.84
17362;BME280;8798;51.938;4.348;2023-04-01T14:15:36;100228.16;;;11.96;90.18
17362;BME280;8798;51.938;4.348;2023-04-01T14:18:27;100241.09;;;12.00;90.11
17362;BME280;8798;51.938;4.348;2023-04-01T14:21:07;100266.66;;;12.04;89.51
17362;BME280;8798;51.938;4.348;2023-04-01T14:23:53;100214.25;;;11.92;89.72
17362;BME280;8798;51.938;4.348;2023-04-01T14:26:50;100179.09;;;11.86;89.90
17362;BME280;8798;51.938;4.348;2023-04-01T14:29:24;100174.88;;;11.83;89.55
17362;BME280;8798;51.938;4.348;2023-04-01T14:32:06;100147.00;;;11.76;89.46
17362;BME280;8798;51.938;4.348;2023-04-01T14:34:47;100124.16;;;11.72;89.97
17362;BME280;8798;51.938;4.348;2023-04-01T14:37:30;100113.75;;;11.69;89.36
17362;BME280;8798;51.938;4.348;2023-04-01T14:40:24;100142.66;;;11.75;89.40
17362;BME280;8798;51.938;4.348;2023-04-01T14:45:54;100115.44;;;11.70;88.98
17362;BME280;8798;51.938;4.348;2023-04-01T14:48:31;100136.78;;;11.71;89.71
17362;BME280;8798;51.938;4.348;2023-04-01T14:51:08;100149.69;;;11.76;89.90
17362;BME280;8798;51.938;4.348;2023-04-01T14:53:40;100166.50;;;11.78;89.31
17362;BME280;8798;51.938;4.348;2023-04-01T14:56:11;100160.47;;;11.76;89.85
17362;BME280;8798;51.938;4.348;2023-04-01T14:58:44;100143.66;;;11.74;89.79